Time;durP1;ratioP1;P1;durP2;ratioP2;P2;SDS_P1;SDS_P2;PMS_P1;PMS_P2;Temp;Humidity;BMP_temperature;BMP_pressure;BME280_temperature;BME280_humidity;BME280_pressure;Samples;Min_cycle;Max_cycle;Signal;HPM_P1;HPM_P2
2022/10/24 00:01:26;;;;;;;;;;;;;;;10.09;100.00;98058.72;7387245;19;19970;-52
2022/10/24 00:04:00;;;;;;;;;;;;;;;10.00;100.00;98061.06;7385683;19;19922;-52
2022/10/24 00:06:36;;;;;;;;;;;;;;;9.92;100.00;98056.25;7380500;19;19911;-54
2022/10/24 00:09:13;;;;;;;;;;;;;;;9.86;100.00;98047.91;7387382;19;19919;-47
2022/10/24 00:11:48;;;;;;;;;;;;;;;9.35;100.00;98046.53;7381152;19;20015;-50
2022/10/24 00:14:21;;;;;;;;;;;;;;;9.11;100.00;98053.16;7389724;19;19918;-47
2022/10/24 00:16:58;;;;;;;;;;;;;;;9.05;100.00;98047.44;7385579;19;20319;-53
2022/10/24 00:19:31;;;;;;;;;;;;;;;9.04;100.00;98045.75;7389056;19;20018;-50
2022/10/24 00:22:07;;;;;;;;;;;;;;;8.98;100.00;98051.31;7388701;19;20383;-47
2022/10/24 00:24:41;;;;;;;;;;;;;;;8.73;100.00;98066.72;7382641;19;19996;-52
2022/10/24 00:27:14;;;;;;;;;;;;;;;8.97;100.00;98070.63;7383124;19;19911;-47
2022/10/24 00:29:48;;;;;;;;;;;;;;;9.21;100.00;98059.59;7387177;19;19979;-52
2022/10/24 00:32:24;;;;;;;;;;;;;;;9.46;100.00;98066.88;7384797;19;20529;-51
2022/10/24 00:34:58;;;;;;;;;;;;;;;9.56;100.00;98055.75;7386000;19;19931;-48
2022/10/24 00:37:33;;;;;;;;;;;;;;;9.45;100.00;98050.28;7380926;19;19948;-48
2022/10/24 00:40:07;;;;;;;;;;;;;;;9.13;100.00;98050.47;7387339;19;19918;-47
2022/10/24 00:42:41;;;;;;;;;;;;;;;8.79;100.00;98056.78;7383403;19;19930;-55
2022/10/24 00:45:29;;;;;;;;;;;;;;;8.83;100.00;98052.19;7386034;19;19966;-48
2022/10/24 00:48:02;;;;;;;;;;;;;;;8.84;100.00;98048.63;7379732;19;19922;-57
2022/10/24 00:50:36;;;;;;;;;;;;;;;8.89;100.00;98049.22;7387521;19;19918;-48
2022/10/24 00:53:12;;;;;;;;;;;;;;;9.08;100.00;98055.13;7385744;19;19927;-47
2022/10/24 00:55:45;;;;;;;;;;;;;;;8.88;100.00;98058.00;7383426;19;19991;-48
2022/10/24 00:58:19;;;;;;;;;;;;;;;8.80;100.00;98057.59;7389222;19;19911;-47
2022/10/24 01:00:53;;;;;;;;;;;;;;;8.50;100.00;98056.66;7383682;19;19922;-56
2022/10/24 01:03:28;;;;;;;;;;;;;;;8.81;100.00;98059.28;7382036;19;20371;-52
2022/10/24 01:06:17;;;;;;;;;;;;;;;8.72;100.00;98054.56;7385928;19;20339;-50
2022/10/24 01:08:56;;;;;;;;;;;;;;;8.62;100.00;98045.50;7387242;19;19919;-51
2022/10/24 01:11:37;;;;;;;;;;;;;;;8.59;100.00;98048.28;7387079;19;19919;-48
2022/10/24 01:14:18;;;;;;;;;;;;;;;8.73;100.00;98046.59;7386170;19;19978;-48
2022/10/24 01:16:54;;;;;;;;;;;;;;;8.63;100.00;98049.84;7384003;19;20259;-54
2022/10/24 01:19:47;;;;;;;;;;;;;;;8.62;100.00;98042.88;7383824;19;19915;-48
2022/10/24 01:22:26;;;;;;;;;;;;;;;8.67;100.00;98040.88;7379569;19;19936;-48
2022/10/24 01:25:11;;;;;;;;;;;;;;;8.74;100.00;98043.03;7383150;19;19936;-48
2022/10/24 01:28:03;;;;;;;;;;;;;;;8.85;100.00;98040.69;7378191;19;19933;-52
2022/10/24 01:30:44;;;;;;;;;;;;;;;8.78;100.00;98033.25;7386810;19;20342;-51
2022/10/24 01:33:21;;;;;;;;;;;;;;;8.60;100.00;98026.41;7385377;19;19915;-48
2022/10/24 01:35:57;;;;;;;;;;;;;;;8.51;100.00;98026.88;7386750;19;19919;-53
2022/10/24 01:38:37;;;;;;;;;;;;;;;8.16;100.00;98028.78;7380436;19;19928;-49
2022/10/24 01:41:13;;;;;;;;;;;;;;;8.01;100.00;98042.66;7385316;19;19927;-48
2022/10/24 01:43:48;;;;;;;;;;;;;;;7.96;100.00;98040.31;7379690;19;19910;-52
2022/10/24 01:46:27;;;;;;;;;;;;;;;7.88;100.00;98034.59;7387772;19;20319;-49
2022/10/24 01:49:05;;;;;;;;;;;;;;;8.24;100.00;98021.41;7383197;19;20268;-55
2022/10/24 01:51:39;;;;;;;;;;;;;;;8.33;100.00;98026.13;7386309;19;19911;-52
2022/10/24 01:54:13;;;;;;;;;;;;;;;8.03;100.00;98019.88;7384265;19;19915;-53
2022/10/24 01:56:47;;;;;;;;;;;;;;;7.82;100.00;98027.09;7383408;19;19911;-48
2022/10/24 01:59:37;;;;;;;;;;;;;;;7.84;100.00;98032.25;7385876;19;20334;-47
2022/10/24 02:02:15;;;;;;;;;;;;;;;8.11;100.00;98021.19;7385543;19;20767;-49
2022/10/24 02:04:55;;;;;;;;;;;;;;;8.31;100.00;98014.88;7385122;19;19919;-51
2022/10/24 02:07:31;;;;;;;;;;;;;;;8.24;100.00;98016.97;7385100;19;19925;-52
2022/10/24 02:10:08;;;;;;;;;;;;;;;8.04;100.00;98019.81;7384734;19;19911;-48
2022/10/24 02:12:43;;;;;;;;;;;;;;;8.18;100.00;98017.34;7381059;19;19946;-51
2022/10/24 02:15:21;;;;;;;;;;;;;;;8.00;100.00;98018.28;7383864;19;19922;-49
2022/10/24 02:17:58;;;;;;;;;;;;;;;8.01;100.00;98012.09;7378006;19;19919;-53
2022/10/24 02:20:34;;;;;;;;;;;;;;;8.07;100.00;98006.59;7383168;19;19945;-51
2022/10/24 02:23:10;;;;;;;;;;;;;;;8.05;100.00;97990.09;7384547;19;19926;-51
2022/10/24 02:25:49;;;;;;;;;;;;;;;8.38;100.00;97983.03;7383434;19;20405;-51
2022/10/24 02:28:25;;;;;;;;;;;;;;;8.63;100.00;97986.94;7381809;19;19915;-50
2022/10/24 02:31:04;;;;;;;;;;;;;;;8.89;100.00;97997.63;7384474;19;19930;-48
2022/10/24 02:33:44;;;;;;;;;;;;;;;8.78;100.00;97992.13;7383301;19;19915;-52
2022/10/24 02:36:21;;;;;;;;;;;;;;;8.85;100.00;97990.03;7388595;19;19922;-52
2022/10/24 02:38:57;;;;;;;;;;;;;;;8.90;100.00;97990.59;7390150;19;19939;-47
2022/10/24 02:41:31;;;;;;;;;;;;;;;8.91;100.00;97987.03;7384623;19;19923;-53
2022/10/24 02:44:07;;;;;;;;;;;;;;;9.11;100.00;97998.06;7389719;19;20258;-48
2022/10/24 02:46:43;;;;;;;;;;;;;;;9.12;100.00;97986.63;7387754;19;19939;-56
2022/10/24 02:49:22;;;;;;;;;;;;;;;9.17;100.00;97989.88;7392944;19;19911;-49
2022/10/24 02:51:57;;;;;;;;;;;;;;;9.11;100.00;97984.97;7390322;19;19914;-53
2022/10/24 02:54:30;;;;;;;;;;;;;;;9.26;100.00;97988.50;7391418;19;19950;-49
2022/10/24 02:57:06;;;;;;;;;;;;;;;9.24;100.00;97992.97;7389487;19;19925;-49
2022/10/24 02:59:39;;;;;;;;;;;;;;;9.09;100.00;97978.97;7388481;19;19927;-48
2022/10/24 03:02:13;;;;;;;;;;;;;;;8.70;100.00;97973.38;7386926;19;19982;-51
2022/10/24 03:04:52;;;;;;;;;;;;;;;8.61;100.00;97973.03;7388622;19;19915;-48
2022/10/24 03:07:25;;;;;;;;;;;;;;;8.55;100.00;97981.25;7390277;19;19939;-50
2022/10/24 03:09:59;;;;;;;;;;;;;;;8.41;100.00;97989.88;7387450;19;19911;-48
2022/10/24 03:12:33;;;;;;;;;;;;;;;8.38;100.00;97975.16;7385227;19;20309;-47
2022/10/24 03:15:06;;;;;;;;;;;;;;;8.58;100.00;97963.59;7392021;19;19918;-51
2022/10/24 03:17:40;;;;;;;;;;;;;;;8.52;100.00;97965.72;7390173;19;19921;-60
2022/10/24 03:20:17;;;;;;;;;;;;;;;8.54;100.00;97966.44;7387967;19;19948;-51
2022/10/24 03:22:54;;;;;;;;;;;;;;;8.54;100.00;97966.44;7392225;19;19921;-51
2022/10/24 03:25:27;;;;;;;;;;;;;;;8.37;100.00;97972.63;7385653;19;20012;-49
2022/10/24 03:28:01;;;;;;;;;;;;;;;8.50;100.00;97967.56;7387546;19;19921;-49
2022/10/24 03:30:35;;;;;;;;;;;;;;;8.58;100.00;97962.72;7385490;19;19919;-58
2022/10/24 03:33:10;;;;;;;;;;;;;;;8.57;100.00;97961.91;7391101;19;19919;-49
2022/10/24 03:35:46;;;;;;;;;;;;;;;8.82;100.00;97956.13;7390764;19;19918;-49
2022/10/24 03:38:20;;;;;;;;;;;;;;;8.98;100.00;97943.78;7380798;19;19926;-48
2022/10/24 03:40:53;;;;;;;;;;;;;;;9.21;100.00;97938.91;7387920;19;19915;-49
2022/10/24 03:43:27;;;;;;;;;;;;;;;9.38;100.00;97945.78;7380569;19;19937;-53
2022/10/24 03:46:01;;;;;;;;;;;;;;;9.77;100.00;97940.75;7387823;19;19979;-51
2022/10/24 03:48:37;;;;;;;;;;;;;;;10.04;100.00;97931.19;7387335;19;19918;-48
2022/10/24 03:51:14;;;;;;;;;;;;;;;10.28;100.00;97932.28;7386706;19;20276;-49
2022/10/24 03:53:50;;;;;;;;;;;;;;;10.06;100.00;97934.56;7386320;19;19918;-50
2022/10/24 03:56:23;;;;;;;;;;;;;;;10.34;100.00;97930.13;7382265;19;20310;-55
2022/10/24 03:58:59;;;;;;;;;;;;;;;10.13;100.00;97930.59;7390496;19;20338;-48
2022/10/24 04:01:33;;;;;;;;;;;;;;;10.38;100.00;97930.75;7384581;19;19934;-58
2022/10/24 04:04:06;;;;;;;;;;;;;;;10.48;100.00;97934.50;7387235;19;19922;-51
2022/10/24 04:06:43;;;;;;;;;;;;;;;10.59;100.00;97929.38;7389233;19;19990;-50
2022/10/24 04:09:16;;;;;;;;;;;;;;;10.37;100.00;97918.56;7382614;19;19930;-48
2022/10/24 04:11:50;;;;;;;;;;;;;;;10.55;100.00;97907.69;7390557;19;20343;-48
2022/10/24 04:14:23;;;;;;;;;;;;;;;10.30;100.00;97912.84;7386779;19;20259;-59
2022/10/24 04:16:57;;;;;;;;;;;;;;;10.47;100.00;97914.38;7389308;19;20017;-48
2022/10/24 04:19:31;;;;;;;;;;;;;;;10.60;100.00;97902.13;7388587;19;19936;-52
2022/10/24 04:22:07;;;;;;;;;;;;;;;10.38;100.00;97904.47;7380227;19;20276;-53
2022/10/24 04:24:41;;;;;;;;;;;;;;;10.47;100.00;97893.34;7387242;19;20267;-51
2022/10/24 04:27:14;;;;;;;;;;;;;;;10.70;100.00;97883.00;7385662;19;19929;-58
2022/10/24 04:29:47;;;;;;;;;;;;;;;10.56;100.00;97877.00;7386732;19;20340;-48
2022/10/24 04:32:25;;;;;;;;;;;;;;;10.95;100.00;97862.03;7388918;19;19974;-56
2022/10/24 04:34:59;;;;;;;;;;;;;;;10.74;100.00;97866.09;7384205;19;20834;-50
2022/10/24 04:37:35;;;;;;;;;;;;;;;10.93;100.00;97876.25;7384668;19;19922;-50
2022/10/24 04:40:08;;;;;;;;;;;;;;;10.87;100.00;97893.28;7380023;19;19942;-52
2022/10/24 04:42:42;;;;;;;;;;;;;;;10.78;100.00;97906.19;7385109;19;19925;-48
2022/10/24 04:45:16;;;;;;;;;;;;;;;10.76;100.00;97906.31;7384733;19;20382;-48
2022/10/24 04:47:49;;;;;;;;;;;;;;;10.66;100.00;97899.13;7377580;19;19982;-52
2022/10/24 04:50:25;;;;;;;;;;;;;;;10.95;100.00;97893.63;7386482;19;19911;-48
2022/10/24 04:53:04;;;;;;;;;;;;;;;10.77;100.00;97886.13;7381268;19;20335;-52
2022/10/24 04:55:41;;;;;;;;;;;;;;;10.75;100.00;97895.88;7383732;19;20349;-48
2022/10/24 04:58:14;;;;;;;;;;;;;;;10.74;100.00;97887.13;7381507;19;19960;-59
2022/10/24 05:00:49;;;;;;;;;;;;;;;10.63;100.00;97862.50;7388343;19;20224;-52
2022/10/24 05:03:22;;;;;;;;;;;;;;;10.80;100.00;97865.69;7384459;19;19994;-52
2022/10/24 05:05:55;;;;;;;;;;;;;;;10.83;100.00;97859.38;7382320;19;19923;-51
2022/10/24 05:08:30;;;;;;;;;;;;;;;10.77;100.00;97865.88;7385401;19;19970;-51
2022/10/24 05:11:03;;;;;;;;;;;;;;;10.79;100.00;97871.06;7385716;19;20270;-49
2022/10/24 05:13:36;;;;;;;;;;;;;;;10.92;100.00;97871.94;7387290;19;20348;-51
2022/10/24 05:16:09;;;;;;;;;;;;;;;10.69;100.00;97868.19;7387539;19;20335;-48
2022/10/24 05:18:44;;;;;;;;;;;;;;;10.63;100.00;97860.69;7382972;19;19938;-53
2022/10/24 05:21:18;;;;;;;;;;;;;;;10.58;100.00;97877.72;7387196;19;19923;-51
2022/10/24 05:23:54;;;;;;;;;;;;;;;10.85;100.00;97873.28;7382799;19;20335;-57
2022/10/24 05:26:27;;;;;;;;;;;;;;;10.90;100.00;97868.56;7383989;19;19944;-51
2022/10/24 05:29:04;;;;;;;;;;;;;;;10.95;100.00;97880.47;7384328;19;19914;-51
2022/10/24 05:31:37;;;;;;;;;;;;;;;10.92;100.00;97878.03;7381611;19;19915;-51
2022/10/24 05:34:11;;;;;;;;;;;;;;;10.87;100.00;97872.25;7386353;19;19982;-55
2022/10/24 05:36:45;;;;;;;;;;;;;;;11.06;100.00;97871.91;7382286;19;19926;-53
2022/10/24 05:39:22;;;;;;;;;;;;;;;10.95;100.00;97869.09;7385484;19;20399;-53
2022/10/24 05:41:55;;;;;;;;;;;;;;;11.28;100.00;97870.31;7384374;19;19911;-51
2022/10/24 05:44:28;;;;;;;;;;;;;;;11.32;100.00;97884.13;7384486;19;20408;-49
2022/10/24 05:47:01;;;;;;;;;;;;;;;11.17;100.00;97879.91;7386095;19;20028;-48
2022/10/24 05:49:37;;;;;;;;;;;;;;;11.04;100.00;97877.25;7377150;19;20048;-52
2022/10/24 05:52:11;;;;;;;;;;;;;;;11.23;100.00;97890.00;7381953;19;20249;-50
2022/10/24 05:54:46;;;;;;;;;;;;;;;11.14;100.00;97882.75;7382151;19;19922;-49
2022/10/24 05:57:19;;;;;;;;;;;;;;;11.09;100.00;97887.44;7381485;19;20920;-51
2022/10/24 05:59:53;;;;;;;;;;;;;;;11.19;100.00;97888.53;7383208;19;19915;-53
2022/10/24 06:02:27;;;;;;;;;;;;;;;11.27;100.00;97881.81;7379247;19;19939;-54
2022/10/24 06:05:00;;;;;;;;;;;;;;;11.39;100.00;97891.50;7385873;19;19921;-50
2022/10/24 06:07:34;;;;;;;;;;;;;;;11.24;100.00;97903.06;7385568;19;19925;-50
2022/10/24 06:10:11;;;;;;;;;;;;;;;11.33;100.00;97902.44;7380393;19;19950;-51
2022/10/24 06:12:44;;;;;;;;;;;;;;;11.22;100.00;97901.47;7394665;19;19922;-53
2022/10/24 06:15:18;;;;;;;;;;;;;;;11.21;100.00;97898.00;7385979;19;19915;-52
2022/10/24 06:17:51;;;;;;;;;;;;;;;11.50;100.00;97890.75;7393665;19;19911;-51
2022/10/24 06:20:25;;;;;;;;;;;;;;;11.60;100.00;97899.69;7393897;19;19929;-48
2022/10/24 06:22:58;;;;;;;;;;;;;;;11.51;100.00;97902.97;7385513;19;20919;-49
2022/10/24 06:25:33;;;;;;;;;;;;;;;11.54;100.00;97900.16;7392589;19;19914;-51
2022/10/24 06:28:06;;;;;;;;;;;;;;;11.40;100.00;97902.88;7385661;19;19922;-54
2022/10/24 06:30:40;;;;;;;;;;;;;;;11.49;100.00;97918.03;7388465;19;19911;-56
2022/10/24 06:33:14;;;;;;;;;;;;;;;11.34;100.00;97917.28;7390982;19;19925;-51
2022/10/24 06:35:47;;;;;;;;;;;;;;;11.52;100.00;97928.34;7385747;19;20275;-52
2022/10/24 06:38:20;;;;;;;;;;;;;;;11.65;100.00;97906.34;7389588;19;19911;-52
2022/10/24 06:40:56;;;;;;;;;;;;;;;11.60;100.00;97926.03;7383620;19;20480;-59
2022/10/24 06:43:29;;;;;;;;;;;;;;;11.76;100.00;97928.47;7391665;19;19911;-51
2022/10/24 06:46:02;;;;;;;;;;;;;;;11.71;100.00;97934.03;7391538;19;19910;-48
2022/10/24 06:48:35;;;;;;;;;;;;;;;11.77;100.00;97942.34;7385565;19;19919;-49
2022/10/24 06:51:11;;;;;;;;;;;;;;;11.95;100.00;97935.00;7384812;19;19942;-51
2022/10/24 06:53:44;;;;;;;;;;;;;;;12.07;100.00;97930.63;7385897;19;19978;-53
2022/10/24 06:56:21;;;;;;;;;;;;;;;12.02;100.00;97940.66;7391292;19;19918;-48
2022/10/24 06:58:55;;;;;;;;;;;;;;;12.23;100.00;97940.00;7389225;19;19919;-51
2022/10/24 07:01:30;;;;;;;;;;;;;;;12.10;100.00;97947.09;7388092;19;19923;-50
2022/10/24 07:04:04;;;;;;;;;;;;;;;12.09;100.00;97939.28;7389676;19;19914;-48
2022/10/24 07:06:37;;;;;;;;;;;;;;;11.99;100.00;97932.97;7384363;19;19911;-50
2022/10/24 07:09:11;;;;;;;;;;;;;;;11.95;100.00;97906.00;7389664;19;19926;-51
2022/10/24 07:11:47;;;;;;;;;;;;;;;12.04;100.00;97915.88;7389421;19;19919;-49
2022/10/24 07:14:20;;;;;;;;;;;;;;;11.97;100.00;97922.53;7388317;19;19922;-51
2022/10/24 07:16:53;;;;;;;;;;;;;;;12.08;100.00;97916.53;7388025;19;19927;-49
2022/10/24 07:19:26;;;;;;;;;;;;;;;12.06;100.00;97916.63;7383437;19;19923;-51
2022/10/24 07:21:59;;;;;;;;;;;;;;;12.10;100.00;97920.72;7387440;19;19919;-52
2022/10/24 07:24:32;;;;;;;;;;;;;;;12.02;100.00;97922.22;7389663;19;19918;-50
2022/10/24 07:27:08;;;;;;;;;;;;;;;12.02;100.00;97917.81;7388044;19;19923;-50
2022/10/24 07:29:44;;;;;;;;;;;;;;;12.10;100.00;97909.34;7389381;19;19932;-48
2022/10/24 07:32:17;;;;;;;;;;;;;;;12.20;100.00;97899.81;7384698;19;20366;-50
2022/10/24 07:34:50;;;;;;;;;;;;;;;12.12;100.00;97902.19;7390699;19;19911;-53
2022/10/24 07:37:23;;;;;;;;;;;;;;;12.30;100.00;97911.44;7388446;19;20463;-49
2022/10/24 07:39:56;;;;;;;;;;;;;;;12.29;100.00;97910.59;7387339;19;19915;-51
2022/10/24 07:42:32;;;;;;;;;;;;;;;12.24;100.00;97902.19;7389706;19;20327;-53
2022/10/24 07:45:06;;;;;;;;;;;;;;;12.27;100.00;97898.47;7383205;19;19918;-54
2022/10/24 07:47:39;;;;;;;;;;;;;;;12.15;100.00;97907.19;7385937;19;19922;-49
2022/10/24 07:50:14;;;;;;;;;;;;;;;12.33;100.00;97905.94;7388302;19;20255;-49
2022/10/24 07:52:47;;;;;;;;;;;;;;;12.26;100.00;97920.50;7386375;19;19919;-49
2022/10/24 07:55:20;;;;;;;;;;;;;;;12.33;100.00;97914.69;7386997;19;19915;-51
2022/10/24 07:57:58;;;;;;;;;;;;;;;12.40;100.00;97921.22;7383355;19;19929;-52
2022/10/24 08:00:31;;;;;;;;;;;;;;;12.32;100.00;97920.91;7386283;19;20794;-52
2022/10/24 08:03:04;;;;;;;;;;;;;;;12.46;100.00;97918.13;7385996;19;19914;-48
2022/10/24 08:05:37;;;;;;;;;;;;;;;12.51;100.00;97915.16;7386733;19;19907;-48
2022/10/24 08:08:11;;;;;;;;;;;;;;;12.65;100.00;97907.06;7387957;19;19915;-50
2022/10/24 08:10:44;;;;;;;;;;;;;;;12.39;100.00;97916.03;7382808;19;20280;-49
2022/10/24 08:13:19;;;;;;;;;;;;;;;12.56;100.00;97918.31;7390410;19;20259;-48
2022/10/24 08:15:52;;;;;;;;;;;;;;;12.60;100.00;97923.22;7390383;19;20029;-51
2022/10/24 08:18:27;;;;;;;;;;;;;;;12.63;100.00;97917.75;7386973;19;20421;-48
2022/10/24 08:21:04;;;;;;;;;;;;;;;12.66;100.00;97927.22;7387818;19;19931;-49
2022/10/24 08:23:38;;;;;;;;;;;;;;;12.68;100.00;97922.69;7381417;19;20268;-50
2022/10/24 08:26:11;;;;;;;;;;;;;;;12.68;100.00;97925.31;7386417;19;19940;-54
2022/10/24 08:28:47;;;;;;;;;;;;;;;12.70;100.00;97932.16;7386025;19;20332;-53
2022/10/24 08:31:21;;;;;;;;;;;;;;;12.67;100.00;97942.13;7385455;19;19991;-54
2022/10/24 08:33:56;;;;;;;;;;;;;;;12.87;100.00;97939.69;7385999;19;20034;-48
2022/10/24 08:36:31;;;;;;;;;;;;;;;12.89;100.00;97937.78;7378642;19;20422;-54
2022/10/24 08:39:04;;;;;;;;;;;;;;;13.07;100.00;97932.94;7384577;19;19926;-51
2022/10/24 08:41:39;;;;;;;;;;;;;;;13.01;100.00;97939.50;7387670;19;19918;-57
2022/10/24 08:44:20;;;;;;;;;;;;;;;13.09;100.00;97944.22;7383108;19;20426;-58
2022/10/24 08:46:56;;;;;;;;;;;;;;;13.30;100.00;97940.00;7385384;19;19919;-49
2022/10/24 08:49:32;;;;;;;;;;;;;;;13.18;100.00;97939.09;7386041;19;20415;-48
2022/10/24 08:52:07;;;;;;;;;;;;;;;13.34;100.00;97925.59;7385946;19;19923;-49
2022/10/24 08:54:45;;;;;;;;;;;;;;;13.36;100.00;97928.97;7380033;19;19926;-48
2022/10/24 08:57:20;;;;;;;;;;;;;;;13.37;100.00;97942.06;7384600;19;19921;-48
2022/10/24 08:59:57;;;;;;;;;;;;;;;13.35;100.00;97946.66;7384290;19;19915;-55
2022/10/24 09:02:31;;;;;;;;;;;;;;;13.46;100.00;97946.69;7382442;19;19910;-51
2022/10/24 09:05:07;;;;;;;;;;;;;;;13.15;100.00;97946.44;7383903;19;20284;-49
2022/10/24 09:07:40;;;;;;;;;;;;;;;13.24;100.00;97941.28;7386352;19;19919;-48
2022/10/24 09:10:19;;;;;;;;;;;;;;;13.38;100.00;97954.34;7383500;19;20422;-50
2022/10/24 09:12:52;;;;;;;;;;;;;;;13.57;100.00;97951.97;7381509;19;19919;-53
2022/10/24 09:15:30;;;;;;;;;;;;;;;13.41;100.00;97940.88;7384463;19;19911;-54
2022/10/24 09:18:06;;;;;;;;;;;;;;;13.61;100.00;97936.72;7382001;19;19982;-59
2022/10/24 09:20:40;;;;;;;;;;;;;;;13.66;100.00;97935.41;7388396;19;19917;-51
2022/10/24 09:23:13;;;;;;;;;;;;;;;13.63;100.00;97937.47;7389012;19;19923;-49
2022/10/24 09:25:49;;;;;;;;;;;;;;;13.51;100.00;97943.66;7381065;19;19911;-49
2022/10/24 09:28:26;;;;;;;;;;;;;;;13.55;100.00;97943.31;7385333;19;19919;-49
2022/10/24 09:31:02;;;;;;;;;;;;;;;13.56;100.00;97942.34;7377240;19;19947;-50
2022/10/24 09:33:41;;;;;;;;;;;;;;;13.83;100.00;97942.03;7387199;19;19925;-52
2022/10/24 09:36:16;;;;;;;;;;;;;;;13.94;100.00;97957.91;7382240;19;20254;-58
2022/10/24 09:38:49;;;;;;;;;;;;;;;13.84;100.00;97960.44;7383791;19;19922;-49
2022/10/24 09:41:24;;;;;;;;;;;;;;;13.75;100.00;97947.94;7385849;19;19915;-48
2022/10/24 09:43:58;;;;;;;;;;;;;;;13.90;100.00;97937.97;7382722;19;19943;-48
2022/10/24 09:46:43;;;;;;;;;;;;;;;13.84;100.00;97934.00;7392917;19;19914;-50
2022/10/24 09:49:24;;;;;;;;;;;;;;;13.61;100.00;97934.94;7387058;19;20316;-48
2022/10/24 09:52:07;;;;;;;;;;;;;;;13.71;100.00;97951.75;7393776;19;19917;-48
2022/10/24 09:54:41;;;;;;;;;;;;;;;13.72;100.00;97952.59;7388774;19;20002;-48
2022/10/24 09:57:20;;;;;;;;;;;;;;;13.75;100.00;97942.66;7389352;19;19911;-49
2022/10/24 09:59:54;;;;;;;;;;;;;;;14.04;100.00;97933.28;7385870;19;20257;-52
2022/10/24 10:02:33;;;;;;;;;;;;;;;13.85;100.00;97933.03;7392578;19;19915;-49
2022/10/24 10:05:21;;;;;;;;;;;;;;;14.25;100.00;97925.44;7386705;19;20323;-55
2022/10/24 10:11:07;;;;;;;;;;;;;;;14.28;100.00;97927.84;7390947;19;19923;-48
2022/10/24 10:13:42;;;;;;;;;;;;;;;14.52;100.00;97920.66;7386174;19;20281;-59
2022/10/24 10:16:26;;;;;;;;;;;;;;;14.60;100.00;97929.66;7389013;19;20330;-53
2022/10/24 10:19:08;;;;;;;;;;;;;;;14.74;100.00;97939.13;7386667;19;20300;-56
2022/10/24 10:21:56;;;;;;;;;;;;;;;15.08;100.00;97926.59;7387574;19;19925;-48
2022/10/24 10:24:42;;;;;;;;;;;;;;;15.14;100.00;97926.94;7383584;19;19915;-49
2022/10/24 10:27:31;;;;;;;;;;;;;;;15.00;100.00;97944.94;7394716;19;19915;-50
2022/10/24 10:30:14;;;;;;;;;;;;;;;14.95;100.00;97955.88;7388990;19;20308;-48
2022/10/24 10:32:50;;;;;;;;;;;;;;;15.06;100.00;97955.03;7391398;19;19919;-49
2022/10/24 10:35:31;;;;;;;;;;;;;;;15.03;100.00;97936.75;7389681;19;20952;-50
2022/10/24 10:38:08;;;;;;;;;;;;;;;15.29;100.00;97932.75;7391110;19;19990;-51
2022/10/24 10:40:43;;;;;;;;;;;;;;;15.13;100.00;97935.03;7387370;19;19919;-48
2022/10/24 10:43:30;;;;;;;;;;;;;;;14.79;100.00;97945.72;7388858;19;20350;-51
2022/10/24 10:46:13;;;;;;;;;;;;;;;15.08;100.00;97937.19;7389833;19;19929;-53
2022/10/24 10:48:53;;;;;;;;;;;;;;;14.88;100.00;97938.84;7390821;19;19915;-50
2022/10/24 10:51:33;;;;;;;;;;;;;;;15.11;100.00;97921.91;7387529;19;19927;-52
2022/10/24 10:54:12;;;;;;;;;;;;;;;15.05;100.00;97937.47;7389782;19;19925;-52
2022/10/24 10:56:48;;;;;;;;;;;;;;;15.03;100.00;97932.28;7392316;19;20399;-48
2022/10/24 10:59:33;;;;;;;;;;;;;;;14.98;100.00;97934.47;7391050;19;19917;-49
2022/10/24 11:02:14;;;;;;;;;;;;;;;14.96;100.00;97924.97;7390614;19;19919;-51
2022/10/24 11:04:53;;;;;;;;;;;;;;;14.88;100.00;97919.47;7390648;19;19921;-49
2022/10/24 11:07:31;;;;;;;;;;;;;;;15.04;100.00;97918.06;7391372;19;19921;-51
2022/10/24 11:10:05;;;;;;;;;;;;;;;15.32;100.00;97914.81;7390758;19;20320;-53
2022/10/24 11:12:45;;;;;;;;;;;;;;;15.16;100.00;97918.88;7386737;19;20533;-53
2022/10/24 11:15:22;;;;;;;;;;;;;;;15.05;100.00;97916.28;7390970;19;19919;-49
2022/10/24 11:17:58;;;;;;;;;;;;;;;15.20;100.00;97910.53;7386198;19;20259;-51
2022/10/24 11:20:33;;;;;;;;;;;;;;;15.34;100.00;97915.50;7389740;19;19985;-49
2022/10/24 11:23:12;;;;;;;;;;;;;;;15.26;100.00;97917.13;7389265;19;20263;-58
2022/10/24 11:25:48;;;;;;;;;;;;;;;15.26;100.00;97911.81;7391034;19;19974;-47
2022/10/24 11:28:23;;;;;;;;;;;;;;;15.27;100.00;97917.00;7390749;19;19907;-53
2022/10/24 11:31:04;;;;;;;;;;;;;;;15.44;100.00;97911.16;7388606;19;20421;-49
2022/10/24 11:33:41;;;;;;;;;;;;;;;15.35;100.00;97911.88;7389719;19;19922;-49
2022/10/24 11:36:17;;;;;;;;;;;;;;;15.60;100.00;97900.09;7386717;19;19919;-52
2022/10/24 11:38:56;;;;;;;;;;;;;;;15.51;100.00;97900.88;7389278;19;19915;-52
2022/10/24 11:41:35;;;;;;;;;;;;;;;15.41;100.00;97902.59;7384624;19;19918;-48
2022/10/24 11:44:12;;;;;;;;;;;;;;;15.40;100.00;97896.47;7389565;19;19915;-51
2022/10/24 11:46:48;;;;;;;;;;;;;;;15.71;100.00;97892.91;7384968;19;19919;-51
2022/10/24 11:49:25;;;;;;;;;;;;;;;15.42;100.00;97889.25;7390848;19;19918;-48
2022/10/24 11:52:00;;;;;;;;;;;;;;;15.36;100.00;97899.50;7385665;19;19921;-58
2022/10/24 11:54:40;;;;;;;;;;;;;;;15.32;100.00;97903.38;7389213;19;19925;-48
2022/10/24 11:57:17;;;;;;;;;;;;;;;15.44;100.00;97899.72;7389778;19;19915;-47
2022/10/24 11:59:50;;;;;;;;;;;;;;;15.62;100.00;97895.50;7390998;19;20395;-52
2022/10/24 12:02:38;;;;;;;;;;;;;;;15.59;100.00;97893.09;7388495;19;20298;-48
2022/10/24 12:05:26;;;;;;;;;;;;;;;15.65;100.00;97897.91;7386713;19;20236;-55
2022/10/24 12:08:14;;;;;;;;;;;;;;;15.45;100.00;97889.00;7379105;19;19914;-59
2022/10/24 12:11:03;;;;;;;;;;;;;;;15.73;100.00;97887.47;7383464;19;19919;-52
2022/10/24 12:13:49;;;;;;;;;;;;;;;15.71;100.00;97887.59;7380680;19;19953;-48
2022/10/24 12:16:28;;;;;;;;;;;;;;;15.70;100.00;97885.06;7388904;19;19931;-48
2022/10/24 12:19:04;;;;;;;;;;;;;;;15.73;100.00;97879.53;7384994;19;19946;-48
2022/10/24 12:21:42;;;;;;;;;;;;;;;16.07;100.00;97875.59;7388666;19;20318;-48
2022/10/24 12:24:26;;;;;;;;;;;;;;;16.07;100.00;97868.50;7382948;19;20024;-49
2022/10/24 12:27:01;;;;;;;;;;;;;;;16.21;100.00;97869.94;7389506;19;19914;-49
2022/10/24 12:29:38;;;;;;;;;;;;;;;16.16;100.00;97864.22;7382386;19;20215;-54
2022/10/24 12:32:26;;;;;;;;;;;;;;;16.36;100.00;97861.50;7386380;19;19915;-50
2022/10/24 12:35:04;;;;;;;;;;;;;;;16.01;100.00;97860.25;7383961;19;19915;-47
2022/10/24 12:37:38;;;;;;;;;;;;;;;15.90;100.00;97852.41;7387914;19;19928;-50
2022/10/24 12:40:29;;;;;;;;;;;;;;;16.21;100.00;97854.03;7385502;19;19918;-50
2022/10/24 12:43:20;;;;;;;;;;;;;;;16.11;100.00;97851.34;7391155;19;19950;-51
2022/10/24 12:45:58;;;;;;;;;;;;;;;16.15;100.00;97850.09;7390995;19;19943;-49
2022/10/24 12:48:37;;;;;;;;;;;;;;;16.37;100.00;97849.06;7390047;19;19974;-48
2022/10/24 12:51:19;;;;;;;;;;;;;;;16.28;100.00;97848.06;7390265;19;19915;-47
2022/10/24 12:54:07;;;;;;;;;;;;;;;16.13;100.00;97838.78;7390978;19;19919;-49
2022/10/24 12:56:40;;;;;;;;;;;;;;;16.20;100.00;97831.94;7387546;19;19923;-48
2022/10/24 12:59:23;;;;;;;;;;;;;;;16.36;100.00;97834.13;7390646;19;20303;-48
2022/10/24 13:02:18;;;;;;;;;;;;;;;16.36;100.00;97836.75;7389128;19;19926;-49
2022/10/24 13:05:01;;;;;;;;;;;;;;;16.54;100.00;97837.78;7384740;19;19970;-47
2022/10/24 13:07:51;;;;;;;;;;;;;;;16.06;100.00;97834.16;7385935;19;19914;-48
2022/10/24 13:10:34;;;;;;;;;;;;;;;16.29;100.00;97838.25;7390667;19;20531;-47
2022/10/24 13:13:22;;;;;;;;;;;;;;;16.20;100.00;97839.09;7389362;19;19919;-50
2022/10/24 13:16:00;;;;;;;;;;;;;;;16.02;100.00;97844.22;7390183;19;19918;-48
2022/10/24 13:18:45;;;;;;;;;;;;;;;16.06;100.00;97850.06;7384840;19;19917;-57
2022/10/24 13:21:26;;;;;;;;;;;;;;;16.23;100.00;97849.44;7390079;19;19986;-48
2022/10/24 13:24:14;;;;;;;;;;;;;;;16.17;100.00;97853.47;7384818;19;19960;-50
2022/10/24 13:26:50;;;;;;;;;;;;;;;16.09;100.00;97852.47;7386520;19;19970;-49
2022/10/24 13:29:45;;;;;;;;;;;;;;;16.25;100.00;97852.78;7384757;19;20295;-48
2022/10/24 13:32:34;;;;;;;;;;;;;;;16.09;100.00;97839.19;7387209;19;19915;-48